createdAt,value
2022-11-10T00:01:46.546Z,3.50
2022-11-10T00:05:10.480Z,3.23
2022-11-10T00:08:32.403Z,2.90
2022-11-10T00:11:54.377Z,2.87
2022-11-10T00:15:33.439Z,3.10
2022-11-10T00:18:57.840Z,3.67
2022-11-10T00:22:23.993Z,2.80
2022-11-10T00:25:47.523Z,3.20
2022-11-10T00:29:09.189Z,4.20
2022-11-10T00:32:31.590Z,3.53
2022-11-10T00:35:53.326Z,3.27
2022-11-10T00:39:16.221Z,3.10
2022-11-10T00:42:41.175Z,3.33
2022-11-10T00:46:03.022Z,3.00
2022-11-10T00:49:24.931Z,3.10
2022-11-10T00:52:46.621Z,3.57
2022-11-10T00:56:09.302Z,3.30
2022-11-10T00:59:30.755Z,3.97
2022-11-10T01:02:52.082Z,3.50
2022-11-10T01:06:17.446Z,4.30
2022-11-10T01:09:39.146Z,4.77
2022-11-10T01:13:02.151Z,4.23
2022-11-10T01:16:27.806Z,4.70
2022-11-10T01:19:49.403Z,4.50
2022-11-10T01:23:11.585Z,5.13
2022-11-10T01:26:33.568Z,3.93
2022-11-10T01:29:56.756Z,5.57
2022-11-10T01:33:18.723Z,5.57
2022-11-10T01:36:40.522Z,4.13
2022-11-10T01:40:03.895Z,6.93
2022-11-10T01:43:26.147Z,5.60
2022-11-10T01:46:49.263Z,4.83
2022-11-10T01:50:10.828Z,4.33
2022-11-10T01:53:36.070Z,4.93
2022-11-10T01:57:02.821Z,4.47
2022-11-10T02:00:25.163Z,6.33
2022-11-10T02:03:52.098Z,6.17
2022-11-10T02:07:14.493Z,5.87
2022-11-10T02:10:37.288Z,6.97
2022-11-10T02:14:00.204Z,5.13
2022-11-10T02:17:21.574Z,8.37
2022-11-10T02:20:47.468Z,5.20
2022-11-10T02:24:09.833Z,8.63
2022-11-10T02:27:34.196Z,4.70
2022-11-10T02:30:56.067Z,5.73
2022-11-10T02:34:18.736Z,4.10
2022-11-10T02:37:43.865Z,6.03
2022-11-10T02:41:05.579Z,6.53
2022-11-10T02:44:27.189Z,7.67
2022-11-10T02:47:48.911Z,11.20
2022-11-10T02:51:10.736Z,4.50
2022-11-10T02:54:33.852Z,7.63
2022-11-10T02:57:57.724Z,5.40
2022-11-10T03:01:22.103Z,4.37
2022-11-10T03:04:44.045Z,6.33
2022-11-10T03:08:06.537Z,6.27
2022-11-10T03:11:32.330Z,4.93
2022-11-10T03:14:54.122Z,4.77
2022-11-10T03:18:15.842Z,3.80
2022-11-10T03:21:37.623Z,3.50
2022-11-10T03:25:01.280Z,3.70
2022-11-10T03:28:24.619Z,3.00
2022-11-10T03:31:46.346Z,3.37
2022-11-10T03:35:09.342Z,3.67
2022-11-10T03:38:31.064Z,3.30
2022-11-10T03:41:52.616Z,3.87
2022-11-10T03:45:16.886Z,3.40
2022-11-10T03:48:38.433Z,3.40
2022-11-10T03:52:00.057Z,3.47
2022-11-10T03:55:22.003Z,3.73
2022-11-10T03:58:45.380Z,4.47
2022-11-10T04:02:09.416Z,4.27
2022-11-10T04:05:49.272Z,4.13
2022-11-10T04:09:11.181Z,3.20
2022-11-10T04:12:50.413Z,3.57
2022-11-10T04:16:12.586Z,3.90
2022-11-10T04:19:35.429Z,3.43
2022-11-10T04:23:14.651Z,3.80
2022-11-10T04:26:38.871Z,3.27
2022-11-10T04:30:01.062Z,4.00
2022-11-10T04:33:23.272Z,3.83
2022-11-10T04:36:47.046Z,3.90
2022-11-10T04:40:10.668Z,3.70
2022-11-10T04:43:33.189Z,4.43
2022-11-10T04:46:54.971Z,3.73
2022-11-10T04:50:16.861Z,3.77
2022-11-10T04:53:40.139Z,3.97
2022-11-10T04:57:01.584Z,3.77
2022-11-10T05:00:23.339Z,3.43
2022-11-10T05:03:45.832Z,3.90
2022-11-10T05:07:09.837Z,4.10
2022-11-10T05:10:32.943Z,5.27
2022-11-10T05:13:54.503Z,5.20
2022-11-10T05:17:16.038Z,4.80
2022-11-10T05:20:37.802Z,4.27
2022-11-10T05:23:59.214Z,4.50
2022-11-10T05:27:22.935Z,4.53
2022-11-10T05:30:44.944Z,4.17
2022-11-10T05:34:06.449Z,4.33
2022-11-10T05:37:27.869Z,4.33
2022-11-10T05:40:49.444Z,4.10
2022-11-10T05:44:12.430Z,4.63
2022-11-10T05:47:33.776Z,5.00
2022-11-10T05:50:56.271Z,5.13
2022-11-10T05:54:18.185Z,5.53
2022-11-10T05:57:39.573Z,4.27
2022-11-10T06:01:02.212Z,4.30
2022-11-10T06:04:23.816Z,5.13
2022-11-10T06:07:45.544Z,5.13
2022-11-10T06:11:07.241Z,5.23
2022-11-10T06:14:28.746Z,4.27
2022-11-10T06:17:51.677Z,4.90
2022-11-10T06:21:13.165Z,5.40
2022-11-10T06:24:34.587Z,4.40
2022-11-10T06:27:56.093Z,5.13
2022-11-10T06:31:17.723Z,4.83
2022-11-10T06:34:40.475Z,4.80
2022-11-10T06:38:03.827Z,4.20
2022-11-10T06:41:25.838Z,5.67
2022-11-10T06:44:47.296Z,6.47
2022-11-10T06:48:14.132Z,7.10
2022-11-10T06:51:36.790Z,6.43
2022-11-10T06:54:59.223Z,5.37
2022-11-10T06:58:20.470Z,5.57
2022-11-10T07:01:44.976Z,5.57
2022-11-10T07:05:07.470Z,4.47
2022-11-10T07:08:30.909Z,5.97
2022-11-10T07:11:53.017Z,5.83
2022-11-10T07:15:14.563Z,7.10
2022-11-10T07:18:36.560Z,5.97
2022-11-10T07:21:58.714Z,5.83
2022-11-10T07:25:21.621Z,6.00
2022-11-10T07:28:43.250Z,6.43
2022-11-10T07:32:05.258Z,6.23
2022-11-10T07:35:28.468Z,6.03
2022-11-10T07:38:49.786Z,9.03
2022-11-10T07:42:12.833Z,5.87
2022-11-10T07:45:35.215Z,5.90
2022-11-10T07:48:56.944Z,5.97
2022-11-10T07:52:18.495Z,5.30
2022-11-10T07:55:41.864Z,6.27
2022-11-10T07:59:04.677Z,5.57
2022-11-10T08:02:26.567Z,6.40
2022-11-10T08:05:48.876Z,6.30
2022-11-10T08:09:10.446Z,5.77
2022-11-10T08:12:33.780Z,5.80
2022-11-10T08:15:59.419Z,5.23
2022-11-10T08:19:21.075Z,5.63
2022-11-10T08:22:43.619Z,5.73
2022-11-10T08:26:05.462Z,6.27
2022-11-10T08:29:27.216Z,6.30
2022-11-10T08:32:50.374Z,5.53
2022-11-10T08:36:11.757Z,5.97
2022-11-10T08:39:40.049Z,6.70
2022-11-10T08:43:03.197Z,5.80
2022-11-10T08:46:24.647Z,6.90
2022-11-10T08:49:47.799Z,6.77
2022-11-10T08:53:12.742Z,7.63
2022-11-10T08:56:35.407Z,6.47
2022-11-10T08:59:56.726Z,6.10
2022-11-10T09:03:20.738Z,6.10
2022-11-10T09:06:43.941Z,6.67
2022-11-10T09:10:07.886Z,5.70
2022-11-10T09:13:30.820Z,5.50
2022-11-10T09:16:52.762Z,6.53
2022-11-10T09:20:14.165Z,6.60
2022-11-10T09:23:37.275Z,5.43
2022-11-10T09:26:58.707Z,5.40
2022-11-10T09:30:21.412Z,5.20
2022-11-10T09:33:43.063Z,5.47
2022-11-10T09:37:05.329Z,5.60
2022-11-10T09:40:38.818Z,6.87
2022-11-10T09:44:06.453Z,5.77
2022-11-10T09:47:56.675Z,6.37
2022-11-10T09:51:25.449Z,5.50
2022-11-10T09:54:54.951Z,5.67
2022-11-10T09:58:18.877Z,5.60
2022-11-10T10:01:48.460Z,5.77
2022-11-10T10:05:51.527Z,6.17
2022-11-10T10:09:22.991Z,5.40
2022-11-10T10:13:01.455Z,5.47
2022-11-10T10:16:34.489Z,6.10
2022-11-10T10:20:04.007Z,5.47
2022-11-10T10:24:02.229Z,5.17
2022-11-10T10:27:22.388Z,5.43
2022-11-10T10:30:45.766Z,6.00
2022-11-10T10:34:14.862Z,6.83
2022-11-10T10:37:45.161Z,4.77
2022-11-10T10:41:18.407Z,5.63
2022-11-10T10:45:14.796Z,5.17
2022-11-10T10:48:36.184Z,5.37
2022-11-10T10:52:07.914Z,4.60
2022-11-10T10:55:31.509Z,5.18
2022-11-10T10:58:55.639Z,5.17
2022-11-10T11:02:28.854Z,4.93
2022-11-10T11:06:07.790Z,4.60
2022-11-10T11:09:39.844Z,4.30
2022-11-10T11:13:15.844Z,4.38
2022-11-10T11:16:47.871Z,4.27
2022-11-10T11:20:15.619Z,4.60
2022-11-10T11:24:00.787Z,3.97
2022-11-10T11:27:30.821Z,5.22
2022-11-10T11:31:06.064Z,5.88
2022-11-10T11:34:34.779Z,6.55
2022-11-10T11:38:09.404Z,5.95
2022-11-10T11:41:40.165Z,5.03
2022-11-10T11:45:19.457Z,5.55
2022-11-10T11:48:52.238Z,4.20
2022-11-10T11:52:23.821Z,4.50
2022-11-10T11:56:03.034Z,4.77
2022-11-10T11:59:50.282Z,4.35
2022-11-10T12:03:33.100Z,3.90
2022-11-10T12:07:09.406Z,4.67
2022-11-10T12:10:45.459Z,4.72
2022-11-10T12:14:20.271Z,4.80
2022-11-10T12:17:52.117Z,4.38
2022-11-10T12:21:24.411Z,3.60
2022-11-10T12:25:00.493Z,3.67
2022-11-10T12:28:27.125Z,4.47
2022-11-10T12:31:53.255Z,4.23
2022-11-10T12:35:21.878Z,4.27
2022-11-10T12:38:59.686Z,4.45
2022-11-10T12:42:24.504Z,4.18
2022-11-10T12:45:50.511Z,4.30
2022-11-10T12:49:19.512Z,3.38
2022-11-10T12:52:46.461Z,4.45
2022-11-10T12:56:17.085Z,3.67
2022-11-10T12:59:40.342Z,4.13
2022-11-10T13:03:02.518Z,3.90
2022-11-10T13:06:29.810Z,3.92
2022-11-10T13:09:51.601Z,3.40
2022-11-10T13:13:15.786Z,3.67
2022-11-10T13:16:54.010Z,3.92
2022-11-10T13:20:48.230Z,3.90
2022-11-10T13:24:24.986Z,4.00
2022-11-10T13:27:53.378Z,3.92
2022-11-10T13:31:53.014Z,4.57
2022-11-10T13:35:54.744Z,4.07
2022-11-10T13:39:24.165Z,3.65
2022-11-10T13:42:47.282Z,4.40
2022-11-10T13:46:09.294Z,3.67
2022-11-10T13:49:52.563Z,4.35
2022-11-10T13:53:28.262Z,4.63
2022-11-10T13:57:06.445Z,3.53
2022-11-10T14:00:30.849Z,3.53
2022-11-10T14:04:01.950Z,4.07
2022-11-10T14:07:26.390Z,4.03
2022-11-10T14:10:53.556Z,4.13
2022-11-10T14:14:19.714Z,3.75
2022-11-10T14:17:45.649Z,3.53
2022-11-10T14:21:11.176Z,4.05
2022-11-10T14:24:39.347Z,3.92
2022-11-10T14:28:00.872Z,3.33
2022-11-10T14:31:25.640Z,3.13
2022-11-10T14:34:50.531Z,3.20
2022-11-10T14:38:21.231Z,3.25
2022-11-10T14:41:49.482Z,3.77
2022-11-10T14:45:18.648Z,3.73
2022-11-10T14:48:43.189Z,4.17
2022-11-10T14:52:05.065Z,3.33
2022-11-10T14:55:30.711Z,4.07
2022-11-10T14:58:54.076Z,3.67
2022-11-10T15:02:18.867Z,3.67
2022-11-10T15:05:40.799Z,3.60
2022-11-10T15:09:13.977Z,3.40
2022-11-10T15:12:41.779Z,4.30
2022-11-10T15:16:26.286Z,4.17
2022-11-10T15:19:55.959Z,4.50
2022-11-10T15:23:24.790Z,4.00
2022-11-10T15:26:48.897Z,3.97
2022-11-10T15:30:23.832Z,3.53
2022-11-10T15:33:49.798Z,4.10
2022-11-10T15:37:27.418Z,3.70
2022-11-10T15:41:05.939Z,4.40
2022-11-10T15:44:29.266Z,4.83
2022-11-10T15:47:51.101Z,4.97
2022-11-10T15:51:21.367Z,4.13
2022-11-10T15:54:46.565Z,4.93
2022-11-10T15:58:13.828Z,4.83
2022-11-10T16:01:35.551Z,4.03
2022-11-10T16:04:59.939Z,3.80
2022-11-10T16:08:24.548Z,4.40
2022-11-10T16:11:47.233Z,4.67
2022-11-10T16:15:20.229Z,4.90
2022-11-10T16:18:43.998Z,4.60
2022-11-10T16:22:05.599Z,4.73
2022-11-10T16:25:28.310Z,5.27
2022-11-10T16:28:50.838Z,5.57
2022-11-10T16:32:12.801Z,4.90
2022-11-10T16:35:34.532Z,5.40
2022-11-10T16:38:57.064Z,4.80
2022-11-10T16:42:19.759Z,5.00
2022-11-10T16:45:43.965Z,5.43
2022-11-10T16:49:08.267Z,5.63
2022-11-10T16:52:29.699Z,9.10
2022-11-10T16:55:51.504Z,7.53
2022-11-10T16:59:14.869Z,7.23
2022-11-10T17:02:37.426Z,6.80
2022-11-10T17:05:59.841Z,8.30
2022-11-10T17:09:26.012Z,6.80
2022-11-10T17:12:48.388Z,6.80
2022-11-10T17:16:28.349Z,6.77
2022-11-10T17:19:51.822Z,6.63
2022-11-10T17:23:15.759Z,7.00
2022-11-10T17:26:37.334Z,6.37
2022-11-10T17:29:58.668Z,7.47
2022-11-10T17:33:22.103Z,6.37
2022-11-10T17:36:43.778Z,6.20
2022-11-10T17:40:19.344Z,5.97
2022-11-10T17:43:45.399Z,6.20
2022-11-10T17:47:09.586Z,6.30
2022-11-10T17:50:33.250Z,5.57
2022-11-10T17:53:55.042Z,6.10
2022-11-10T17:57:17.262Z,5.43
2022-11-10T18:00:39.033Z,6.03
2022-11-10T18:04:00.863Z,5.87
2022-11-10T18:07:23.726Z,5.60
2022-11-10T18:10:50.344Z,6.43
2022-11-10T18:14:12.855Z,6.43
2022-11-10T18:17:34.666Z,6.43
2022-11-10T18:20:57.716Z,5.73
2022-11-10T18:24:20.539Z,4.90
2022-11-10T18:27:42.472Z,5.77
2022-11-10T18:31:08.197Z,6.30
2022-11-10T18:34:30.058Z,5.17
2022-11-10T18:37:51.536Z,5.17
2022-11-10T18:41:31.779Z,5.20
2022-11-10T18:44:54.869Z,5.93
2022-11-10T18:48:16.642Z,5.47
2022-11-10T18:51:38.400Z,6.03
2022-11-10T18:55:00.029Z,5.70
2022-11-10T18:58:23.023Z,5.43
2022-11-10T19:01:44.864Z,5.03
2022-11-10T19:05:07.368Z,5.37
2022-11-10T19:08:30.288Z,6.63
2022-11-10T19:11:51.972Z,5.67
2022-11-10T19:15:14.738Z,5.60
2022-11-10T19:18:36.500Z,9.37
2022-11-10T19:21:58.701Z,8.70
2022-11-10T19:25:20.974Z,12.80
2022-11-10T19:28:43.583Z,11.00
2022-11-10T19:32:06.798Z,11.20
2022-11-10T19:35:28.569Z,10.20
2022-11-10T19:38:50.510Z,8.17
2022-11-10T19:42:12.232Z,9.53
2022-11-10T19:45:35.334Z,7.17
2022-11-10T19:48:58.819Z,5.80
2022-11-10T19:52:20.356Z,5.43
2022-11-10T19:55:42.675Z,4.77
2022-11-10T19:59:04.309Z,5.23
2022-11-10T20:02:25.741Z,5.73
2022-11-10T20:05:48.755Z,5.20
2022-11-10T20:09:10.891Z,6.57
2022-11-10T20:12:32.400Z,5.47
2022-11-10T20:15:53.755Z,5.07
2022-11-10T20:19:15.177Z,5.60
2022-11-10T20:22:37.954Z,6.33
2022-11-10T20:26:05.767Z,5.17
2022-11-10T20:29:28.271Z,6.23
2022-11-10T20:32:50.318Z,4.70
2022-11-10T20:36:20.237Z,5.87
2022-11-10T20:39:43.730Z,5.47
2022-11-10T20:43:06.092Z,6.47
2022-11-10T20:46:52.881Z,5.33
2022-11-10T20:50:15.402Z,6.20
2022-11-10T20:53:39.678Z,7.07
2022-11-10T20:57:02.736Z,5.40
2022-11-10T21:00:24.393Z,6.63
2022-11-10T21:03:45.952Z,4.77
2022-11-10T21:07:07.545Z,5.17
2022-11-10T21:10:29.180Z,5.53
2022-11-10T21:13:52.169Z,4.80
2022-11-10T21:17:13.742Z,5.10
2022-11-10T21:20:35.582Z,5.07
2022-11-10T21:23:58.357Z,6.27
2022-11-10T21:27:20.534Z,5.20
2022-11-10T21:30:43.425Z,6.07
2022-11-10T21:34:04.995Z,4.50
2022-11-10T21:37:26.915Z,5.37
2022-11-10T21:40:48.300Z,5.83
2022-11-10T21:44:09.763Z,6.23
2022-11-10T21:47:35.201Z,5.30
2022-11-10T21:51:00.910Z,4.73
2022-11-10T21:54:22.703Z,4.47
2022-11-10T21:57:44.622Z,5.00
2022-11-10T22:01:08.807Z,4.80
2022-11-10T22:04:33.013Z,5.40
2022-11-10T22:07:54.880Z,4.23
2022-11-10T22:11:36.083Z,4.50
2022-11-10T22:15:15.615Z,5.67
2022-11-10T22:18:41.594Z,5.23
2022-11-10T22:22:04.638Z,5.57
2022-11-10T22:25:26.665Z,4.80
2022-11-10T22:28:48.248Z,5.47
2022-11-10T22:32:09.517Z,4.73
2022-11-10T22:35:46.135Z,5.20
2022-11-10T22:39:09.150Z,5.67
2022-11-10T22:42:48.354Z,4.50
2022-11-10T22:46:09.868Z,4.83
2022-11-10T22:49:31.294Z,5.83
2022-11-10T22:52:53.328Z,5.57
2022-11-10T22:56:16.466Z,5.40
2022-11-10T22:59:37.998Z,5.87
2022-11-10T23:02:59.946Z,5.53
2022-11-10T23:06:21.520Z,5.97
2022-11-10T23:09:43.377Z,6.13
2022-11-10T23:13:06.123Z,5.33
2022-11-10T23:16:30.885Z,5.53
2022-11-10T23:19:52.647Z,5.97
2022-11-10T23:23:14.113Z,5.40
2022-11-10T23:26:36.323Z,6.17
2022-11-10T23:29:59.124Z,6.40
2022-11-10T23:33:20.896Z,5.07
2022-11-10T23:36:42.973Z,5.53
2022-11-10T23:40:05.672Z,5.20
2022-11-10T23:43:27.872Z,4.83
2022-11-10T23:46:51.043Z,6.43
2022-11-10T23:50:12.618Z,5.03
2022-11-10T23:53:34.624Z,5.20
2022-11-10T23:56:56.235Z,5.50
